sensor_id;sensor_type;location;lat;lon;timestamp;pressure;altitude;pressure_sealevel;temperature;humidity
64316;BME280;50652;51.482;-0.580;2023-06-04T00:01:13;102296.94;;;15.15;41.41
64316;BME280;50652;51.482;-0.580;2023-06-04T00:03:40;102296.53;;;15.52;41.92
64316;BME280;50652;51.482;-0.580;2023-06-04T00:06:07;102292.26;;;15.73;41.49
64316;BME280;50652;51.482;-0.580;2023-06-04T00:08:34;102291.38;;;15.80;41.72
64316;BME280;50652;51.482;-0.580;2023-06-04T00:11:03;102291.82;;;15.68;41.46
64316;BME280;50652;51.482;-0.580;2023-06-04T00:13:30;102293.48;;;15.93;41.27
64316;BME280;50652;51.482;-0.580;2023-06-04T00:15:57;102293.52;;;15.96;41.18
64316;BME280;50652;51.482;-0.580;2023-06-04T00:18:25;102296.29;;;15.57;41.58
64316;BME280;50652;51.482;-0.580;2023-06-04T00:20:52;102298.20;;;16.27;41.12
64316;BME280;50652;51.482;-0.580;2023-06-04T00:23:19;102296.79;;;15.67;41.64
64316;BME280;50652;51.482;-0.580;2023-06-04T00:25:46;102295.46;;;15.60;41.87
64316;BME280;50652;51.482;-0.580;2023-06-04T00:28:13;102292.89;;;15.45;42.11
64316;BME280;50652;51.482;-0.580;2023-06-04T00:30:40;102290.81;;;15.28;42.64
64316;BME280;50652;51.482;-0.580;2023-06-04T00:33:07;102292.56;;;14.99;43.26
64316;BME280;50652;51.482;-0.580;2023-06-04T00:35:34;102288.62;;;15.38;42.91
64316;BME280;50652;51.482;-0.580;2023-06-04T00:38:04;102290.39;;;15.01;43.55
64316;BME280;50652;51.482;-0.580;2023-06-04T00:40:30;102289.63;;;14.81;43.85
64316;BME280;50652;51.482;-0.580;2023-06-04T00:42:57;102292.03;;;15.25;43.69
64316;BME280;50652;51.482;-0.580;2023-06-04T00:45:25;102291.88;;;15.32;43.91
64316;BME280;50652;51.482;-0.580;2023-06-04T00:47:52;102289.69;;;14.66;44.78
64316;BME280;50652;51.482;-0.580;2023-06-04T00:50:19;102291.86;;;15.25;44.36
64316;BME280;50652;51.482;-0.580;2023-06-04T00:52:47;102298.87;;;15.46;44.19
64316;BME280;50652;51.482;-0.580;2023-06-04T00:55:14;102294.95;;;14.58;44.78
64316;BME280;50652;51.482;-0.580;2023-06-04T00:57:41;102295.73;;;14.72;44.91
64316;BME280;50652;51.482;-0.580;2023-06-04T01:00:09;102300.29;;;15.37;44.07
64316;BME280;50652;51.482;-0.580;2023-06-04T01:02:38;102297.08;;;15.20;44.64
64316;BME280;50652;51.482;-0.580;2023-06-04T01:05:13;102296.71;;;14.88;45.40
64316;BME280;50652;51.482;-0.580;2023-06-04T01:07:42;102297.37;;;14.88;45.01
64316;BME280;50652;51.482;-0.580;2023-06-04T01:10:10;102295.96;;;14.46;45.78
64316;BME280;50652;51.482;-0.580;2023-06-04T01:12:39;102302.33;;;13.44;47.78
64316;BME280;50652;51.482;-0.580;2023-06-04T01:15:09;102301.39;;;13.85;47.14
64316;BME280;50652;51.482;-0.580;2023-06-04T01:17:39;102298.37;;;14.29;46.42
64316;BME280;50652;51.482;-0.580;2023-06-04T01:20:19;102296.96;;;14.11;46.90
64316;BME280;50652;51.482;-0.580;2023-06-04T01:23:02;102294.67;;;14.11;46.79
64316;BME280;50652;51.482;-0.580;2023-06-04T01:25:34;102294.85;;;13.87;47.50
64316;BME280;50652;51.482;-0.580;2023-06-04T01:28:06;102286.31;;;13.98;47.30
64316;BME280;50652;51.482;-0.580;2023-06-04T01:30:35;102287.50;;;13.42;48.19
64316;BME280;50652;51.482;-0.580;2023-06-04T01:33:03;102285.92;;;14.19;47.73
64316;BME280;50652;51.482;-0.580;2023-06-04T01:35:31;102284.40;;;13.34;48.40
64316;BME280;50652;51.482;-0.580;2023-06-04T01:37:58;102279.81;;;14.29;47.33
64316;BME280;50652;51.482;-0.580;2023-06-04T01:40:25;102281.04;;;14.57;47.27
64316;BME280;50652;51.482;-0.580;2023-06-04T01:42:52;102283.03;;;14.11;47.19
64316;BME280;50652;51.482;-0.580;2023-06-04T01:45:21;102284.87;;;14.46;47.14
64316;BME280;50652;51.482;-0.580;2023-06-04T01:47:48;102288.12;;;14.14;47.64
64316;BME280;50652;51.482;-0.580;2023-06-04T01:50:16;102285.27;;;13.94;48.04
64316;BME280;50652;51.482;-0.580;2023-06-04T01:52:43;102284.67;;;14.10;47.70
64316;BME280;50652;51.482;-0.580;2023-06-04T01:55:12;102286.50;;;13.71;48.39
64316;BME280;50652;51.482;-0.580;2023-06-04T01:57:40;102281.81;;;14.25;47.36
64316;BME280;50652;51.482;-0.580;2023-06-04T02:00:09;102282.96;;;13.84;47.82
64316;BME280;50652;51.482;-0.580;2023-06-04T02:02:36;102286.22;;;13.23;49.14
64316;BME280;50652;51.482;-0.580;2023-06-04T02:05:05;102276.55;;;13.86;48.13
64316;BME280;50652;51.482;-0.580;2023-06-04T02:07:33;102276.84;;;13.78;48.00
64316;BME280;50652;51.482;-0.580;2023-06-04T02:10:04;102274.43;;;13.67;48.20
64316;BME280;50652;51.482;-0.580;2023-06-04T02:12:31;102276.23;;;14.20;47.51
64316;BME280;50652;51.482;-0.580;2023-06-04T02:14:58;102274.97;;;14.02;47.82
64316;BME280;50652;51.482;-0.580;2023-06-04T02:17:25;102273.60;;;13.88;48.09
64316;BME280;50652;51.482;-0.580;2023-06-04T02:19:52;102272.50;;;14.15;47.61
64316;BME280;50652;51.482;-0.580;2023-06-04T02:22:20;102277.32;;;14.15;48.05
64316;BME280;50652;51.482;-0.580;2023-06-04T02:24:47;102281.60;;;13.95;48.46
64316;BME280;50652;51.482;-0.580;2023-06-04T02:27:14;102288.39;;;13.75;48.93
64316;BME280;50652;51.482;-0.580;2023-06-04T02:29:41;102291.36;;;13.58;49.25
64316;BME280;50652;51.482;-0.580;2023-06-04T02:32:10;102287.66;;;13.66;50.02
64316;BME280;50652;51.482;-0.580;2023-06-04T02:34:36;102285.18;;;14.20;49.06
64316;BME280;50652;51.482;-0.580;2023-06-04T02:37:05;102289.42;;;13.76;49.26
64316;BME280;50652;51.482;-0.580;2023-06-04T02:39:32;102286.64;;;14.00;49.27
64316;BME280;50652;51.482;-0.580;2023-06-04T02:42:01;102283.17;;;13.56;50.20
64316;BME280;50652;51.482;-0.580;2023-06-04T02:44:28;102288.28;;;13.70;49.96
64316;BME280;50652;51.482;-0.580;2023-06-04T02:46:55;102285.62;;;13.78;50.02
64316;BME280;50652;51.482;-0.580;2023-06-04T02:49:22;102286.02;;;13.51;49.82
64316;BME280;50652;51.482;-0.580;2023-06-04T02:51:49;102292.16;;;13.05;51.34
64316;BME280;50652;51.482;-0.580;2023-06-04T02:54:17;102287.59;;;13.54;49.78
64316;BME280;50652;51.482;-0.580;2023-06-04T02:56:44;102291.08;;;13.18;51.10
64316;BME280;50652;51.482;-0.580;2023-06-04T02:59:11;102286.57;;;13.95;49.30
64316;BME280;50652;51.482;-0.580;2023-06-04T03:01:38;102281.83;;;14.09;49.22
64316;BME280;50652;51.482;-0.580;2023-06-04T03:04:05;102280.60;;;13.82;49.61
64316;BME280;50652;51.482;-0.580;2023-06-04T03:06:32;102280.76;;;13.72;49.80
64316;BME280;50652;51.482;-0.580;2023-06-04T03:08:59;102281.59;;;12.99;50.96
64316;BME280;50652;51.482;-0.580;2023-06-04T03:11:27;102280.81;;;13.26;50.81
64316;BME280;50652;51.482;-0.580;2023-06-04T03:13:55;102280.63;;;13.85;49.56
64316;BME280;50652;51.482;-0.580;2023-06-04T03:16:22;102283.98;;;13.52;50.27
64316;BME280;50652;51.482;-0.580;2023-06-04T03:18:49;102282.80;;;13.49;50.52
64316;BME280;50652;51.482;-0.580;2023-06-04T03:21:16;102280.58;;;13.58;50.06
64316;BME280;50652;51.482;-0.580;2023-06-04T03:23:43;102279.91;;;13.47;50.25
64316;BME280;50652;51.482;-0.580;2023-06-04T03:26:10;102278.78;;;13.26;50.90
64316;BME280;50652;51.482;-0.580;2023-06-04T03:28:38;102280.72;;;13.62;50.79
64316;BME280;50652;51.482;-0.580;2023-06-04T03:31:05;102282.39;;;13.13;51.03
64316;BME280;50652;51.482;-0.580;2023-06-04T03:33:32;102277.02;;;13.51;50.54
64316;BME280;50652;51.482;-0.580;2023-06-04T03:35:59;102282.19;;;12.79;51.76
64316;BME280;50652;51.482;-0.580;2023-06-04T03:38:26;102277.24;;;13.65;50.67
64316;BME280;50652;51.482;-0.580;2023-06-04T03:40:53;102279.75;;;14.08;50.16
64316;BME280;50652;51.482;-0.580;2023-06-04T03:43:21;102283.84;;;13.13;51.14
64316;BME280;50652;51.482;-0.580;2023-06-04T03:45:48;102283.86;;;13.39;51.39
64316;BME280;50652;51.482;-0.580;2023-06-04T03:48:15;102288.70;;;13.09;52.07
64316;BME280;50652;51.482;-0.580;2023-06-04T03:50:42;102284.13;;;13.25;51.43
64316;BME280;50652;51.482;-0.580;2023-06-04T03:53:09;102284.91;;;13.37;51.85
64316;BME280;50652;51.482;-0.580;2023-06-04T03:55:36;102285.36;;;13.48;51.62
64316;BME280;50652;51.482;-0.580;2023-06-04T03:58:03;102288.29;;;13.12;51.61
64316;BME280;50652;51.482;-0.580;2023-06-04T04:00:30;102288.63;;;13.75;51.02
64316;BME280;50652;51.482;-0.580;2023-06-04T04:02:57;102289.76;;;13.78;50.98
64316;BME280;50652;51.482;-0.580;2023-06-04T04:05:24;102294.84;;;12.82;52.07
64316;BME280;50652;51.482;-0.580;2023-06-04T04:07:52;102293.56;;;13.32;51.38
64316;BME280;50652;51.482;-0.580;2023-06-04T04:10:19;102293.16;;;13.06;52.19
64316;BME280;50652;51.482;-0.580;2023-06-04T04:12:46;102294.78;;;13.25;51.60
64316;BME280;50652;51.482;-0.580;2023-06-04T04:15:13;102295.99;;;13.34;51.54
64316;BME280;50652;51.482;-0.580;2023-06-04T04:17:40;102295.24;;;13.51;51.72
64316;BME280;50652;51.482;-0.580;2023-06-04T04:20:07;102289.34;;;12.95;52.76
64316;BME280;50652;51.482;-0.580;2023-06-04T04:22:34;102289.63;;;13.46;51.80
64316;BME280;50652;51.482;-0.580;2023-06-04T04:25:01;102292.11;;;13.51;51.16
64316;BME280;50652;51.482;-0.580;2023-06-04T04:27:28;102290.13;;;13.22;52.25
64316;BME280;50652;51.482;-0.580;2023-06-04T04:29:55;102291.87;;;12.94;52.46
64316;BME280;50652;51.482;-0.580;2023-06-04T04:32:22;102291.47;;;13.55;51.68
64316;BME280;50652;51.482;-0.580;2023-06-04T04:34:52;102290.32;;;13.23;52.52
64316;BME280;50652;51.482;-0.580;2023-06-04T04:37:20;102288.02;;;13.36;52.28
64316;BME280;50652;51.482;-0.580;2023-06-04T04:39:47;102285.88;;;12.51;53.03
64316;BME280;50652;51.482;-0.580;2023-06-04T04:42:14;102288.64;;;13.04;52.60
64316;BME280;50652;51.482;-0.580;2023-06-04T04:44:41;102290.14;;;13.30;52.61
64316;BME280;50652;51.482;-0.580;2023-06-04T04:47:08;102289.27;;;12.67;53.42
64316;BME280;50652;51.482;-0.580;2023-06-04T04:49:35;102291.13;;;11.39;55.96
64316;BME280;50652;51.482;-0.580;2023-06-04T04:52:02;102289.83;;;12.00;55.46
64316;BME280;50652;51.482;-0.580;2023-06-04T04:54:29;102288.84;;;12.26;54.99
64316;BME280;50652;51.482;-0.580;2023-06-04T04:56:56;102293.59;;;12.33;54.69
64316;BME280;50652;51.482;-0.580;2023-06-04T04:59:23;102292.18;;;13.05;53.66
64316;BME280;50652;51.482;-0.580;2023-06-04T05:01:50;102289.39;;;12.79;54.31
64316;BME280;50652;51.482;-0.580;2023-06-04T05:04:17;102292.10;;;12.62;54.39
64316;BME280;50652;51.482;-0.580;2023-06-04T05:06:45;102288.37;;;12.25;55.21
64316;BME280;50652;51.482;-0.580;2023-06-04T05:09:12;102286.65;;;12.73;54.44
64316;BME280;50652;51.482;-0.580;2023-06-04T05:11:38;102286.78;;;12.47;54.98
64316;BME280;50652;51.482;-0.580;2023-06-04T05:14:05;102283.13;;;12.96;54.22
64316;BME280;50652;51.482;-0.580;2023-06-04T05:16:33;102281.39;;;12.76;54.43
64316;BME280;50652;51.482;-0.580;2023-06-04T05:19:01;102280.27;;;12.81;54.49
64316;BME280;50652;51.482;-0.580;2023-06-04T05:21:28;102284.84;;;12.81;53.76
64316;BME280;50652;51.482;-0.580;2023-06-04T05:23:55;102288.18;;;12.68;54.85
64316;BME280;50652;51.482;-0.580;2023-06-04T05:26:22;102292.68;;;12.98;53.93
64316;BME280;50652;51.482;-0.580;2023-06-04T05:28:49;102292.83;;;12.69;54.35
64316;BME280;50652;51.482;-0.580;2023-06-04T05:31:16;102297.56;;;12.98;54.00
64316;BME280;50652;51.482;-0.580;2023-06-04T05:33:43;102297.49;;;12.09;55.10
64316;BME280;50652;51.482;-0.580;2023-06-04T05:36:10;102298.08;;;12.97;54.09
64316;BME280;50652;51.482;-0.580;2023-06-04T05:38:37;102294.46;;;12.23;55.43
64316;BME280;50652;51.482;-0.580;2023-06-04T05:41:05;102295.95;;;13.15;54.27
64316;BME280;50652;51.482;-0.580;2023-06-04T05:43:32;102296.77;;;13.61;53.28
64316;BME280;50652;51.482;-0.580;2023-06-04T05:45:59;102299.77;;;13.09;53.38
64316;BME280;50652;51.482;-0.580;2023-06-04T05:48:27;102297.05;;;13.36;53.00
64316;BME280;50652;51.482;-0.580;2023-06-04T05:50:54;102295.26;;;13.63;52.49
64316;BME280;50652;51.482;-0.580;2023-06-04T05:53:21;102292.53;;;13.76;52.77
64316;BME280;50652;51.482;-0.580;2023-06-04T05:55:48;102293.12;;;13.69;52.40
64316;BME280;50652;51.482;-0.580;2023-06-04T05:58:15;102296.34;;;13.96;51.96
64316;BME280;50652;51.482;-0.580;2023-06-04T06:00:42;102294.57;;;13.69;51.83
64316;BME280;50652;51.482;-0.580;2023-06-04T06:03:09;102298.53;;;14.14;51.81
64316;BME280;50652;51.482;-0.580;2023-06-04T06:05:36;102297.28;;;13.21;52.20
64316;BME280;50652;51.482;-0.580;2023-06-04T06:08:03;102297.09;;;14.34;51.27
64316;BME280;50652;51.482;-0.580;2023-06-04T06:10:30;102302.27;;;14.13;51.40
64316;BME280;50652;51.482;-0.580;2023-06-04T06:12:57;102304.93;;;14.12;51.45
64316;BME280;50652;51.482;-0.580;2023-06-04T06:15:25;102305.41;;;14.28;51.27
64316;BME280;50652;51.482;-0.580;2023-06-04T06:17:52;102303.74;;;14.61;50.66
64316;BME280;50652;51.482;-0.580;2023-06-04T06:20:19;102299.60;;;14.45;50.73
64316;BME280;50652;51.482;-0.580;2023-06-04T06:22:46;102304.09;;;12.45;52.60
64316;BME280;50652;51.482;-0.580;2023-06-04T06:25:13;102301.37;;;13.82;51.39
64316;BME280;50652;51.482;-0.580;2023-06-04T06:27:41;102295.99;;;14.18;50.68
64316;BME280;50652;51.482;-0.580;2023-06-04T06:30:09;102297.35;;;14.50;50.18
64316;BME280;50652;51.482;-0.580;2023-06-04T06:32:36;102304.10;;;14.09;50.67
64316;BME280;50652;51.482;-0.580;2023-06-04T06:35:03;102307.59;;;13.12;51.10
64316;BME280;50652;51.482;-0.580;2023-06-04T06:37:30;102305.56;;;13.94;50.89
64316;BME280;50652;51.482;-0.580;2023-06-04T06:39:57;102310.25;;;13.51;51.62
64316;BME280;50652;51.482;-0.580;2023-06-04T06:42:24;102300.73;;;14.07;51.03
64316;BME280;50652;51.482;-0.580;2023-06-04T06:44:52;102304.04;;;14.61;50.30
64316;BME280;50652;51.482;-0.580;2023-06-04T06:47:19;102300.13;;;14.47;49.76
64316;BME280;50652;51.482;-0.580;2023-06-04T06:49:46;102301.37;;;15.08;48.63
64316;BME280;50652;51.482;-0.580;2023-06-04T06:52:13;102302.95;;;15.17;48.10
64316;BME280;50652;51.482;-0.580;2023-06-04T06:54:40;102299.77;;;14.96;48.10
64316;BME280;50652;51.482;-0.580;2023-06-04T06:57:08;102297.35;;;15.18;48.40
64316;BME280;50652;51.482;-0.580;2023-06-04T06:59:35;102294.91;;;15.11;48.86
64316;BME280;50652;51.482;-0.580;2023-06-04T07:02:02;102294.13;;;15.84;47.97
64316;BME280;50652;51.482;-0.580;2023-06-04T07:04:30;102293.62;;;15.76;47.44
64316;BME280;50652;51.482;-0.580;2023-06-04T07:06:57;102298.31;;;15.24;47.37
64316;BME280;50652;51.482;-0.580;2023-06-04T07:09:24;102293.69;;;15.72;46.84
64316;BME280;50652;51.482;-0.580;2023-06-04T07:11:51;102294.43;;;15.32;47.11
64316;BME280;50652;51.482;-0.580;2023-06-04T07:14:18;102293.42;;;15.26;47.34
64316;BME280;50652;51.482;-0.580;2023-06-04T07:16:45;102292.67;;;15.93;46.89
64316;BME280;50652;51.482;-0.580;2023-06-04T07:19:12;102295.33;;;15.74;46.19
64316;BME280;50652;51.482;-0.580;2023-06-04T07:21:40;102297.80;;;15.92;46.50
64316;BME280;50652;51.482;-0.580;2023-06-04T07:24:07;102296.52;;;15.94;45.87
64316;BME280;50652;51.482;-0.580;2023-06-04T07:26:34;102299.35;;;15.58;46.17
64316;BME280;50652;51.482;-0.580;2023-06-04T07:29:02;102303.27;;;16.28;45.11
64316;BME280;50652;51.482;-0.580;2023-06-04T07:31:29;102305.98;;;15.89;46.74
64316;BME280;50652;51.482;-0.580;2023-06-04T07:33:56;102305.24;;;16.03;44.66
64316;BME280;50652;51.482;-0.580;2023-06-04T07:36:23;102307.00;;;16.65;44.19
64316;BME280;50652;51.482;-0.580;2023-06-04T07:38:50;102308.20;;;16.59;43.88
64316;BME280;50652;51.482;-0.580;2023-06-04T07:41:17;102308.18;;;16.75;42.75
64316;BME280;50652;51.482;-0.580;2023-06-04T07:43:44;102307.25;;;16.91;41.90
64316;BME280;50652;51.482;-0.580;2023-06-04T07:46:11;102307.33;;;16.85;42.36
64316;BME280;50652;51.482;-0.580;2023-06-04T07:48:39;102306.25;;;17.09;41.73
64316;BME280;50652;51.482;-0.580;2023-06-04T07:51:06;102313.91;;;16.72;41.70
64316;BME280;50652;51.482;-0.580;2023-06-04T07:53:33;102311.65;;;17.20;42.06
64316;BME280;50652;51.482;-0.580;2023-06-04T07:56:01;102309.55;;;16.98;41.71
64316;BME280;50652;51.482;-0.580;2023-06-04T07:58:28;102307.73;;;17.21;41.67
64316;BME280;50652;51.482;-0.580;2023-06-04T08:00:55;102308.07;;;17.71;41.33
64316;BME280;50652;51.482;-0.580;2023-06-04T08:03:22;102309.85;;;17.82;41.16
64316;BME280;50652;51.482;-0.580;2023-06-04T08:05:49;102307.21;;;17.88;40.33
64316;BME280;50652;51.482;-0.580;2023-06-04T08:08:16;102306.02;;;17.44;41.29
64316;BME280;50652;51.482;-0.580;2023-06-04T08:10:43;102305.75;;;18.38;39.99
64316;BME280;50652;51.482;-0.580;2023-06-04T08:13:10;102302.59;;;17.59;41.28
64316;BME280;50652;51.482;-0.580;2023-06-04T08:15:37;102302.35;;;18.24;40.55
64316;BME280;50652;51.482;-0.580;2023-06-04T08:18:04;102300.84;;;18.30;39.41
64316;BME280;50652;51.482;-0.580;2023-06-04T08:20:31;102299.86;;;18.16;40.69
64316;BME280;50652;51.482;-0.580;2023-06-04T08:22:58;102300.83;;;17.81;39.67
64316;BME280;50652;51.482;-0.580;2023-06-04T08:25:25;102294.64;;;18.87;39.90
64316;BME280;50652;51.482;-0.580;2023-06-04T08:27:52;102289.46;;;18.66;39.01
64316;BME280;50652;51.482;-0.580;2023-06-04T08:30:19;102288.87;;;18.70;38.51
64316;BME280;50652;51.482;-0.580;2023-06-04T08:32:46;102288.53;;;18.77;38.79
64316;BME280;50652;51.482;-0.580;2023-06-04T08:35:13;102292.14;;;18.15;37.87
64316;BME280;50652;51.482;-0.580;2023-06-04T08:37:40;102289.13;;;19.36;37.08
64316;BME280;50652;51.482;-0.580;2023-06-04T08:40:09;102291.89;;;18.62;38.07
64316;BME280;50652;51.482;-0.580;2023-06-04T08:42:41;102289.90;;;19.19;37.64
64316;BME280;50652;51.482;-0.580;2023-06-04T08:45:10;102292.01;;;19.68;36.13
64316;BME280;50652;51.482;-0.580;2023-06-04T08:47:41;102290.92;;;18.92;37.04
64316;BME280;50652;51.482;-0.580;2023-06-04T08:50:10;102284.31;;;19.72;37.01
64316;BME280;50652;51.482;-0.580;2023-06-04T08:52:39;102292.85;;;19.66;36.49
64316;BME280;50652;51.482;-0.580;2023-06-04T08:55:08;102286.87;;;19.85;35.81
64316;BME280;50652;51.482;-0.580;2023-06-04T08:57:39;102291.62;;;19.67;36.31
64316;BME280;50652;51.482;-0.580;2023-06-04T09:00:07;102296.37;;;19.78;35.63
64316;BME280;50652;51.482;-0.580;2023-06-04T09:02:36;102292.48;;;20.31;36.01
64316;BME280;50652;51.482;-0.580;2023-06-04T09:05:05;102296.13;;;19.85;36.15
64316;BME280;50652;51.482;-0.580;2023-06-04T09:07:36;102300.63;;;19.21;37.71
64316;BME280;50652;51.482;-0.580;2023-06-04T09:10:04;102295.58;;;20.22;36.30
64316;BME280;50652;51.482;-0.580;2023-06-04T09:12:36;102294.00;;;20.41;36.03
64316;BME280;50652;51.482;-0.580;2023-06-04T09:15:06;102294.90;;;19.94;37.46
64316;BME280;50652;51.482;-0.580;2023-06-04T09:17:33;102291.75;;;20.43;37.39
64316;BME280;50652;51.482;-0.580;2023-06-04T09:20:02;102297.18;;;19.67;37.87
64316;BME280;50652;51.482;-0.580;2023-06-04T09:22:33;102298.54;;;20.92;36.62
64316;BME280;50652;51.482;-0.580;2023-06-04T09:25:04;102295.11;;;20.16;36.26
64316;BME280;50652;51.482;-0.580;2023-06-04T09:27:38;102298.06;;;20.33;35.78
64316;BME280;50652;51.482;-0.580;2023-06-04T09:30:06;102298.32;;;21.22;35.95
64316;BME280;50652;51.482;-0.580;2023-06-04T09:32:33;102295.49;;;21.66;34.76
64316;BME280;50652;51.482;-0.580;2023-06-04T09:35:09;102301.70;;;20.04;35.46
64316;BME280;50652;51.482;-0.580;2023-06-04T09:37:37;102298.08;;;20.30;35.68
64316;BME280;50652;51.482;-0.580;2023-06-04T09:40:05;102298.16;;;20.02;35.39
64316;BME280;50652;51.482;-0.580;2023-06-04T09:42:42;102295.22;;;19.37;36.07
64316;BME280;50652;51.482;-0.580;2023-06-04T09:45:10;102299.02;;;20.06;36.18
64316;BME280;50652;51.482;-0.580;2023-06-04T09:47:41;102298.89;;;20.86;35.03
64316;BME280;50652;51.482;-0.580;2023-06-04T09:50:11;102303.78;;;21.12;35.92
64316;BME280;50652;51.482;-0.580;2023-06-04T09:52:38;102301.00;;;21.36;34.64
64316;BME280;50652;51.482;-0.580;2023-06-04T09:55:16;102302.93;;;21.74;34.53
64316;BME280;50652;51.482;-0.580;2023-06-04T09:57:44;102306.98;;;21.04;35.93
64316;BME280;50652;51.482;-0.580;2023-06-04T10:00:14;102303.51;;;21.27;34.48
64316;BME280;50652;51.482;-0.580;2023-06-04T10:02:43;102305.68;;;20.67;36.44
64316;BME280;50652;51.482;-0.580;2023-06-04T10:05:11;102305.34;;;20.87;35.28
64316;BME280;50652;51.482;-0.580;2023-06-04T10:07:41;102307.97;;;21.73;35.53
64316;BME280;50652;51.482;-0.580;2023-06-04T10:10:11;102305.77;;;21.13;34.80
64316;BME280;50652;51.482;-0.580;2023-06-04T10:12:41;102303.82;;;21.26;34.41
64316;BME280;50652;51.482;-0.580;2023-06-04T10:15:12;102305.68;;;21.05;34.32
64316;BME280;50652;51.482;-0.580;2023-06-04T10:17:40;102304.46;;;21.76;33.45
64316;BME280;50652;51.482;-0.580;2023-06-04T10:20:08;102304.02;;;21.73;33.63
64316;BME280;50652;51.482;-0.580;2023-06-04T10:22:35;102305.58;;;21.13;34.90
64316;BME280;50652;51.482;-0.580;2023-06-04T10:25:04;102300.77;;;20.68;34.67
64316;BME280;50652;51.482;-0.580;2023-06-04T10:27:31;102300.24;;;20.92;34.85
64316;BME280;50652;51.482;-0.580;2023-06-04T10:29:59;102301.12;;;21.51;34.46
64316;BME280;50652;51.482;-0.580;2023-06-04T10:32:27;102294.87;;;21.17;34.56
64316;BME280;50652;51.482;-0.580;2023-06-04T10:34:55;102298.36;;;21.47;34.77
64316;BME280;50652;51.482;-0.580;2023-06-04T10:37:23;102303.51;;;21.42;33.63
64316;BME280;50652;51.482;-0.580;2023-06-04T10:39:51;102308.97;;;21.79;33.90
64316;BME280;50652;51.482;-0.580;2023-06-04T10:42:19;102301.74;;;22.01;34.16
64316;BME280;50652;51.482;-0.580;2023-06-04T10:44:47;102309.44;;;21.77;34.54
64316;BME280;50652;51.482;-0.580;2023-06-04T10:47:19;102303.72;;;21.79;33.76
64316;BME280;50652;51.482;-0.580;2023-06-04T10:49:49;102300.31;;;21.97;34.88
64316;BME280;50652;51.482;-0.580;2023-06-04T10:52:16;102301.62;;;21.80;33.92
64316;BME280;50652;51.482;-0.580;2023-06-04T10:54:45;102299.39;;;21.80;34.15
64316;BME280;50652;51.482;-0.580;2023-06-04T10:57:14;102299.33;;;22.46;33.81
64316;BME280;50652;51.482;-0.580;2023-06-04T10:59:53;102299.64;;;22.32;33.54
64316;BME280;50652;51.482;-0.580;2023-06-04T11:02:20;102299.56;;;22.59;33.25
64316;BME280;50652;51.482;-0.580;2023-06-04T11:04:57;102293.54;;;22.85;32.62
64316;BME280;50652;51.482;-0.580;2023-06-04T11:07:25;102293.29;;;22.05;33.71
64316;BME280;50652;51.482;-0.580;2023-06-04T11:09:52;102291.83;;;22.27;33.53
64316;BME280;50652;51.482;-0.580;2023-06-04T11:12:19;102294.95;;;22.29;33.68
64316;BME280;50652;51.482;-0.580;2023-06-04T11:14:54;102289.75;;;22.09;34.05
64316;BME280;50652;51.482;-0.580;2023-06-04T11:17:22;102287.24;;;22.76;33.44
64316;BME280;50652;51.482;-0.580;2023-06-04T11:19:49;102285.04;;;22.82;33.39
64316;BME280;50652;51.482;-0.580;2023-06-04T11:22:16;102289.64;;;22.69;33.57
64316;BME280;50652;51.482;-0.580;2023-06-04T11:24:43;102294.00;;;22.79;32.61
64316;BME280;50652;51.482;-0.580;2023-06-04T11:27:10;102293.76;;;22.39;33.34
64316;BME280;50652;51.482;-0.580;2023-06-04T11:29:37;102297.27;;;22.44;34.11
64316;BME280;50652;51.482;-0.580;2023-06-04T11:32:05;102294.41;;;22.26;34.25
64316;BME280;50652;51.482;-0.580;2023-06-04T11:34:32;102286.64;;;23.18;34.01
64316;BME280;50652;51.482;-0.580;2023-06-04T11:37:08;102286.74;;;22.76;33.36
64316;BME280;50652;51.482;-0.580;2023-06-04T11:39:36;102289.57;;;22.66;33.04
64316;BME280;50652;51.482;-0.580;2023-06-04T11:42:05;102290.24;;;22.58;33.73
64316;BME280;50652;51.482;-0.580;2023-06-04T11:44:32;102282.55;;;22.53;33.07
64316;BME280;50652;51.482;-0.580;2023-06-04T11:46:59;102289.12;;;23.39;32.54
64316;BME280;50652;51.482;-0.580;2023-06-04T11:49:27;102280.70;;;22.80;32.65
64316;BME280;50652;51.482;-0.580;2023-06-04T11:51:55;102280.47;;;23.08;32.98
64316;BME280;50652;51.482;-0.580;2023-06-04T11:54:22;102279.91;;;22.37;34.22
64316;BME280;50652;51.482;-0.580;2023-06-04T11:56:51;102270.62;;;22.54;33.81
64316;BME280;50652;51.482;-0.580;2023-06-04T11:59:18;102274.70;;;22.76;32.73
64316;BME280;50652;51.482;-0.580;2023-06-04T12:01:46;102269.07;;;23.18;32.37
64316;BME280;50652;51.482;-0.580;2023-06-04T12:04:16;102265.75;;;22.03;32.38
64316;BME280;50652;51.482;-0.580;2023-06-04T12:06:51;102265.36;;;23.21;32.39
64316;BME280;50652;51.482;-0.580;2023-06-04T12:09:20;102260.56;;;23.41;32.11
64316;BME280;50652;51.482;-0.580;2023-06-04T12:11:47;102257.41;;;23.38;32.80
64316;BME280;50652;51.482;-0.580;2023-06-04T12:14:17;102248.57;;;22.91;32.48
64316;BME280;50652;51.482;-0.580;2023-06-04T12:16:54;102253.65;;;23.80;32.63
64316;BME280;50652;51.482;-0.580;2023-06-04T12:19:21;102247.89;;;23.56;32.47
64316;BME280;50652;51.482;-0.580;2023-06-04T12:21:59;102251.32;;;23.93;32.40
64316;BME280;50652;51.482;-0.580;2023-06-04T12:24:26;102242.82;;;23.80;31.79
64316;BME280;50652;51.482;-0.580;2023-06-04T12:27:02;102249.88;;;23.42;32.72
64316;BME280;50652;51.482;-0.580;2023-06-04T12:29:30;102246.95;;;22.99;31.74
64316;BME280;50652;51.482;-0.580;2023-06-04T12:32:06;102251.79;;;23.06;32.19
64316;BME280;50652;51.482;-0.580;2023-06-04T12:34:34;102250.08;;;24.06;32.71
64316;BME280;50652;51.482;-0.580;2023-06-04T12:37:02;102247.42;;;24.22;32.48
64316;BME280;50652;51.482;-0.580;2023-06-04T12:39:29;102243.81;;;23.80;30.67
64316;BME280;50652;51.482;-0.580;2023-06-04T12:41:56;102240.87;;;24.57;31.35
64316;BME280;50652;51.482;-0.580;2023-06-04T12:44:23;102240.33;;;25.07;31.12